sensor_id;sensor_type;location;lat;lon;timestamp;temperature;humidity
18577;DHT22;9418;52.694;13.294;2022-12-07T00:14:48;2.30;99.90
18577;DHT22;9418;52.694;13.294;2022-12-07T00:17:15;2.30;99.90
18577;DHT22;9418;52.694;13.294;2022-12-07T00:19:41;2.30;99.90
18577;DHT22;9418;52.694;13.294;2022-12-07T00:22:08;2.30;99.90
18577;DHT22;9418;52.694;13.294;2022-12-07T00:24:34;2.30;99.90
18577;DHT22;9418;52.694;13.294;2022-12-07T00:27:01;2.30;99.90
18577;DHT22;9418;52.694;13.294;2022-12-07T00:29:27;2.30;99.90
18577;DHT22;9418;52.694;13.294;2022-12-07T00:31:55;2.30;99.90
18577;DHT22;9418;52.694;13.294;2022-12-07T00:34:22;2.30;99.90
18577;DHT22;9418;52.694;13.294;2022-12-07T00:36:49;2.20;99.90
18577;DHT22;9418;52.694;13.294;2022-12-07T00:39:16;2.20;99.90
18577;DHT22;9418;52.694;13.294;2022-12-07T00:41:43;2.20;99.90
18577;DHT22;9418;52.694;13.294;2022-12-07T00:44:09;2.20;99.90
18577;DHT22;9418;52.694;13.294;2022-12-07T00:46:36;2.10;99.90
18577;DHT22;9418;52.694;13.294;2022-12-07T00:49:04;2.10;99.90
18577;DHT22;9418;52.694;13.294;2022-12-07T00:51:30;2.10;99.90
18577;DHT22;9418;52.694;13.294;2022-12-07T00:53:57;2.00;99.90
18577;DHT22;9418;52.694;13.294;2022-12-07T00:56:25;2.00;99.90
18577;DHT22;9418;52.694;13.294;2022-12-07T00:58:53;1.90;99.90
18577;DHT22;9418;52.694;13.294;2022-12-07T01:01:21;1.90;99.90
18577;DHT22;9418;52.694;13.294;2022-12-07T01:03:48;1.80;99.90
18577;DHT22;9418;52.694;13.294;2022-12-07T01:06:17;1.90;99.90
18577;DHT22;9418;52.694;13.294;2022-12-07T01:08:44;1.80;99.90
18577;DHT22;9418;52.694;13.294;2022-12-07T01:11:13;1.90;99.90
18577;DHT22;9418;52.694;13.294;2022-12-07T01:13:40;1.90;99.90
18577;DHT22;9418;52.694;13.294;2022-12-07T01:16:09;1.90;99.90
18577;DHT22;9418;52.694;13.294;2022-12-07T01:18:36;1.90;99.90
18577;DHT22;9418;52.694;13.294;2022-12-07T01:21:04;1.90;99.90
18577;DHT22;9418;52.694;13.294;2022-12-07T01:23:33;1.80;99.90
18577;DHT22;9418;52.694;13.294;2022-12-07T01:26:02;1.80;99.90
18577;DHT22;9418;52.694;13.294;2022-12-07T01:28:29;1.90;99.90
18577;DHT22;9418;52.694;13.294;2022-12-07T01:31:00;1.90;99.90
18577;DHT22;9418;52.694;13.294;2022-12-07T01:33:28;1.90;99.90
18577;DHT22;9418;52.694;13.294;2022-12-07T01:35:59;1.90;99.90
18577;DHT22;9418;52.694;13.294;2022-12-07T01:38:26;1.90;99.90
18577;DHT22;9418;52.694;13.294;2022-12-07T01:40:58;1.90;99.90
18577;DHT22;9418;52.694;13.294;2022-12-07T01:43:28;2.00;99.90
18577;DHT22;9418;52.694;13.294;2022-12-07T01:45:56;1.90;99.90
18577;DHT22;9418;52.694;13.294;2022-12-07T01:48:26;1.90;99.90
18577;DHT22;9418;52.694;13.294;2022-12-07T01:50:54;1.90;99.90
18577;DHT22;9418;52.694;13.294;2022-12-07T01:53:25;1.90;99.90
18577;DHT22;9418;52.694;13.294;2022-12-07T01:55:53;1.90;99.90
18577;DHT22;9418;52.694;13.294;2022-12-07T01:58:22;1.80;99.90
18577;DHT22;9418;52.694;13.294;2022-12-07T02:00:49;1.80;99.90
18577;DHT22;9418;52.694;13.294;2022-12-07T02:03:20;1.70;99.90
18577;DHT22;9418;52.694;13.294;2022-12-07T02:05:49;1.70;99.90
18577;DHT22;9418;52.694;13.294;2022-12-07T02:08:16;1.70;99.90
18577;DHT22;9418;52.694;13.294;2022-12-07T02:10:43;1.60;99.90
18577;DHT22;9418;52.694;13.294;2022-12-07T02:13:14;1.60;99.90
18577;DHT22;9418;52.694;13.294;2022-12-07T02:15:59;1.60;99.90
18577;DHT22;9418;52.694;13.294;2022-12-07T02:18:37;1.60;99.90
18577;DHT22;9418;52.694;13.294;2022-12-07T02:21:07;1.60;99.90
18577;DHT22;9418;52.694;13.294;2022-12-07T02:23:46;1.60;99.90
18577;DHT22;9418;52.694;13.294;2022-12-07T02:29:21;1.50;99.90
18577;DHT22;9418;52.694;13.294;2022-12-07T02:31:55;1.40;99.90
18577;DHT22;9418;52.694;13.294;2022-12-07T02:34:27;1.40;99.90
18577;DHT22;9418;52.694;13.294;2022-12-07T02:37:03;1.50;99.90
18577;DHT22;9418;52.694;13.294;2022-12-07T02:39:39;1.50;99.90
18577;DHT22;9418;52.694;13.294;2022-12-07T02:42:11;1.60;99.90
18577;DHT22;9418;52.694;13.294;2022-12-07T02:44:42;1.50;99.90
18577;DHT22;9418;52.694;13.294;2022-12-07T02:47:13;1.50;99.90
18577;DHT22;9418;52.694;13.294;2022-12-07T02:49:41;1.60;99.90
18577;DHT22;9418;52.694;13.294;2022-12-07T02:52:08;1.50;99.90
18577;DHT22;9418;52.694;13.294;2022-12-07T02:54:35;1.50;99.90
18577;DHT22;9418;52.694;13.294;2022-12-07T02:57:10;1.50;99.90
18577;DHT22;9418;52.694;13.294;2022-12-07T02:59:48;1.50;99.90
18577;DHT22;9418;52.694;13.294;2022-12-07T03:02:24;1.50;99.90
18577;DHT22;9418;52.694;13.294;2022-12-07T03:04:59;1.50;99.90
18577;DHT22;9418;52.694;13.294;2022-12-07T03:07:34;1.50;99.90
18577;DHT22;9418;52.694;13.294;2022-12-07T03:10:12;1.40;99.90
18577;DHT22;9418;52.694;13.294;2022-12-07T03:12:45;1.50;99.90
18577;DHT22;9418;52.694;13.294;2022-12-07T03:15:20;1.50;99.90
18577;DHT22;9418;52.694;13.294;2022-12-07T03:17:49;1.50;99.90
18577;DHT22;9418;52.694;13.294;2022-12-07T03:20:19;1.50;99.90
18577;DHT22;9418;52.694;13.294;2022-12-07T03:22:48;1.50;99.90
18577;DHT22;9418;52.694;13.294;2022-12-07T03:25:16;1.50;99.90
18577;DHT22;9418;52.694;13.294;2022-12-07T03:27:47;1.50;99.90
18577;DHT22;9418;52.694;13.294;2022-12-07T03:30:20;1.50;99.90
18577;DHT22;9418;52.694;13.294;2022-12-07T03:32:50;1.50;99.90
18577;DHT22;9418;52.694;13.294;2022-12-07T03:35:22;1.40;99.90
18577;DHT22;9418;52.694;13.294;2022-12-07T03:37:54;1.50;99.90
18577;DHT22;9418;52.694;13.294;2022-12-07T03:40:25;1.50;99.90
18577;DHT22;9418;52.694;13.294;2022-12-07T03:42:53;1.50;99.90
18577;DHT22;9418;52.694;13.294;2022-12-07T03:45:28;1.50;99.90
18577;DHT22;9418;52.694;13.294;2022-12-07T03:48:03;1.50;99.90
18577;DHT22;9418;52.694;13.294;2022-12-07T03:50:38;1.50;99.90
18577;DHT22;9418;52.694;13.294;2022-12-07T03:53:11;1.50;99.90
18577;DHT22;9418;52.694;13.294;2022-12-07T03:55:43;1.50;99.90
18577;DHT22;9418;52.694;13.294;2022-12-07T03:58:13;1.50;99.90
18577;DHT22;9418;52.694;13.294;2022-12-07T04:00:43;1.50;99.90
18577;DHT22;9418;52.694;13.294;2022-12-07T04:03:10;1.50;99.90
18577;DHT22;9418;52.694;13.294;2022-12-07T04:05:36;1.50;99.90
18577;DHT22;9418;52.694;13.294;2022-12-07T04:08:04;1.60;99.90
18577;DHT22;9418;52.694;13.294;2022-12-07T04:10:30;1.50;99.90
18577;DHT22;9418;52.694;13.294;2022-12-07T04:12:57;1.50;99.90
18577;DHT22;9418;52.694;13.294;2022-12-07T04:15:23;1.60;99.90
18577;DHT22;9418;52.694;13.294;2022-12-07T04:17:51;1.60;99.90
18577;DHT22;9418;52.694;13.294;2022-12-07T04:20:19;1.60;99.90
18577;DHT22;9418;52.694;13.294;2022-12-07T04:22:46;1.60;99.90
18577;DHT22;9418;52.694;13.294;2022-12-07T04:25:12;1.60;99.90
18577;DHT22;9418;52.694;13.294;2022-12-07T04:27:39;1.70;99.90
18577;DHT22;9418;52.694;13.294;2022-12-07T04:30:07;1.70;99.90
18577;DHT22;9418;52.694;13.294;2022-12-07T04:32:33;1.70;99.90
18577;DHT22;9418;52.694;13.294;2022-12-07T04:35:01;1.70;99.90
18577;DHT22;9418;52.694;13.294;2022-12-07T04:37:28;1.70;99.90
18577;DHT22;9418;52.694;13.294;2022-12-07T04:39:55;1.80;99.90
18577;DHT22;9418;52.694;13.294;2022-12-07T04:42:21;1.70;99.90
18577;DHT22;9418;52.694;13.294;2022-12-07T04:44:48;1.80;99.90
18577;DHT22;9418;52.694;13.294;2022-12-07T04:47:14;1.80;99.90
18577;DHT22;9418;52.694;13.294;2022-12-07T04:49:41;1.80;99.90
18577;DHT22;9418;52.694;13.294;2022-12-07T04:52:09;1.80;99.90
18577;DHT22;9418;52.694;13.294;2022-12-07T04:54:35;1.90;99.90
18577;DHT22;9418;52.694;13.294;2022-12-07T04:57:02;1.90;99.90
18577;DHT22;9418;52.694;13.294;2022-12-07T04:59:29;1.90;99.90
18577;DHT22;9418;52.694;13.294;2022-12-07T05:01:55;2.00;99.90
18577;DHT22;9418;52.694;13.294;2022-12-07T05:04:22;2.00;99.90
18577;DHT22;9418;52.694;13.294;2022-12-07T05:06:48;2.00;99.90
18577;DHT22;9418;52.694;13.294;2022-12-07T05:09:16;2.00;99.90
18577;DHT22;9418;52.694;13.294;2022-12-07T05:11:43;2.00;99.90
18577;DHT22;9418;52.694;13.294;2022-12-07T05:14:12;2.10;99.90
18577;DHT22;9418;52.694;13.294;2022-12-07T05:16:40;2.10;99.90
18577;DHT22;9418;52.694;13.294;2022-12-07T05:19:07;2.20;99.90
18577;DHT22;9418;52.694;13.294;2022-12-07T05:21:34;2.20;99.90
18577;DHT22;9418;52.694;13.294;2022-12-07T05:24:01;2.20;99.90
18577;DHT22;9418;52.694;13.294;2022-12-07T05:26:29;2.20;99.90
18577;DHT22;9418;52.694;13.294;2022-12-07T05:28:56;2.30;99.90
18577;DHT22;9418;52.694;13.294;2022-12-07T05:31:24;2.40;1.40
18577;DHT22;9418;52.694;13.294;2022-12-07T05:33:51;2.40;99.90
18577;DHT22;9418;52.694;13.294;2022-12-07T05:36:18;2.40;99.90
18577;DHT22;9418;52.694;13.294;2022-12-07T05:38:44;2.40;1.40
18577;DHT22;9418;52.694;13.294;2022-12-07T05:41:13;2.40;99.90
18577;DHT22;9418;52.694;13.294;2022-12-07T05:43:55;2.50;99.90
18577;DHT22;9418;52.694;13.294;2022-12-07T05:46:22;2.50;99.90
18577;DHT22;9418;52.694;13.294;2022-12-07T05:48:49;2.50;99.90
18577;DHT22;9418;52.694;13.294;2022-12-07T05:51:15;2.50;99.90
18577;DHT22;9418;52.694;13.294;2022-12-07T05:53:42;2.60;99.90
18577;DHT22;9418;52.694;13.294;2022-12-07T05:56:09;2.60;99.90
18577;DHT22;9418;52.694;13.294;2022-12-07T05:58:35;2.60;99.90
18577;DHT22;9418;52.694;13.294;2022-12-07T06:01:21;2.60;99.90
18577;DHT22;9418;52.694;13.294;2022-12-07T06:03:48;2.60;99.90
18577;DHT22;9418;52.694;13.294;2022-12-07T06:06:14;2.70;99.90
18577;DHT22;9418;52.694;13.294;2022-12-07T06:08:41;2.70;99.90
18577;DHT22;9418;52.694;13.294;2022-12-07T06:11:07;2.70;99.90
18577;DHT22;9418;52.694;13.294;2022-12-07T06:13:52;2.70;99.90
18577;DHT22;9418;52.694;13.294;2022-12-07T06:16:18;2.70;99.90
18577;DHT22;9418;52.694;13.294;2022-12-07T06:18:46;2.70;99.90
18577;DHT22;9418;52.694;13.294;2022-12-07T06:21:13;2.70;99.90
18577;DHT22;9418;52.694;13.294;2022-12-07T06:23:39;2.70;99.90
18577;DHT22;9418;52.694;13.294;2022-12-07T06:26:06;2.70;99.90
18577;DHT22;9418;52.694;13.294;2022-12-07T06:28:33;2.70;99.90
18577;DHT22;9418;52.694;13.294;2022-12-07T06:31:00;2.70;99.90
18577;DHT22;9418;52.694;13.294;2022-12-07T06:33:27;2.70;99.90
18577;DHT22;9418;52.694;13.294;2022-12-07T06:35:56;2.70;99.90
18577;DHT22;9418;52.694;13.294;2022-12-07T06:38:22;2.70;99.90
18577;DHT22;9418;52.694;13.294;2022-12-07T06:40:50;2.70;99.90
18577;DHT22;9418;52.694;13.294;2022-12-07T06:43:16;2.80;99.90
18577;DHT22;9418;52.694;13.294;2022-12-07T06:45:43;2.80;99.90
18577;DHT22;9418;52.694;13.294;2022-12-07T06:48:09;2.80;99.90
18577;DHT22;9418;52.694;13.294;2022-12-07T06:50:36;2.80;99.90
18577;DHT22;9418;52.694;13.294;2022-12-07T06:53:04;2.90;99.90
18577;DHT22;9418;52.694;13.294;2022-12-07T06:55:30;2.80;99.90
18577;DHT22;9418;52.694;13.294;2022-12-07T06:57:57;2.80;99.90
18577;DHT22;9418;52.694;13.294;2022-12-07T07:00:24;2.80;99.90
18577;DHT22;9418;52.694;13.294;2022-12-07T07:02:50;2.80;99.90
18577;DHT22;9418;52.694;13.294;2022-12-07T07:05:17;2.90;99.90
18577;DHT22;9418;52.694;13.294;2022-12-07T07:07:43;2.90;99.90
18577;DHT22;9418;52.694;13.294;2022-12-07T07:10:12;2.90;99.90
18577;DHT22;9418;52.694;13.294;2022-12-07T07:12:38;2.90;99.90
18577;DHT22;9418;52.694;13.294;2022-12-07T07:15:06;2.90;99.90
18577;DHT22;9418;52.694;13.294;2022-12-07T07:17:32;2.90;99.90
18577;DHT22;9418;52.694;13.294;2022-12-07T07:19:59;2.90;99.90
18577;DHT22;9418;52.694;13.294;2022-12-07T07:22:25;2.90;99.90
18577;DHT22;9418;52.694;13.294;2022-12-07T07:24:52;2.90;99.90
18577;DHT22;9418;52.694;13.294;2022-12-07T07:27:20;3.00;99.90
18577;DHT22;9418;52.694;13.294;2022-12-07T07:30:24;3.00;99.90
18577;DHT22;9418;52.694;13.294;2022-12-07T07:32:51;3.00;99.90
18577;DHT22;9418;52.694;13.294;2022-12-07T07:35:18;3.10;99.90
18577;DHT22;9418;52.694;13.294;2022-12-07T07:37:44;3.10;99.90
18577;DHT22;9418;52.694;13.294;2022-12-07T07:40:12;3.10;99.90
18577;DHT22;9418;52.694;13.294;2022-12-07T07:42:40;3.10;99.90
18577;DHT22;9418;52.694;13.294;2022-12-07T07:45:07;3.10;1.40
18577;DHT22;9418;52.694;13.294;2022-12-07T07:47:34;3.10;99.90
18577;DHT22;9418;52.694;13.294;2022-12-07T07:50:00;3.10;99.90
18577;DHT22;9418;52.694;13.294;2022-12-07T07:52:27;3.10;99.90
18577;DHT22;9418;52.694;13.294;2022-12-07T07:54:53;3.10;99.90
18577;DHT22;9418;52.694;13.294;2022-12-07T07:57:20;3.10;99.90
18577;DHT22;9418;52.694;13.294;2022-12-07T07:59:48;3.10;99.90
18577;DHT22;9418;52.694;13.294;2022-12-07T08:02:16;3.10;99.90
18577;DHT22;9418;52.694;13.294;2022-12-07T08:04:43;3.10;99.90
18577;DHT22;9418;52.694;13.294;2022-12-07T08:07:10;3.20;99.90
18577;DHT22;9418;52.694;13.294;2022-12-07T08:09:37;3.20;99.90
18577;DHT22;9418;52.694;13.294;2022-12-07T08:12:04;3.10;99.90
18577;DHT22;9418;52.694;13.294;2022-12-07T08:14:31;3.10;99.90
18577;DHT22;9418;52.694;13.294;2022-12-07T08:16:59;3.10;99.90
18577;DHT22;9418;52.694;13.294;2022-12-07T08:19:25;3.20;99.90
18577;DHT22;9418;52.694;13.294;2022-12-07T08:21:52;3.20;99.90
18577;DHT22;9418;52.694;13.294;2022-12-07T08:24:20;3.20;99.90
18577;DHT22;9418;52.694;13.294;2022-12-07T08:26:47;3.20;99.90
18577;DHT22;9418;52.694;13.294;2022-12-07T08:29:13;3.20;99.90
18577;DHT22;9418;52.694;13.294;2022-12-07T08:31:40;3.20;99.90
18577;DHT22;9418;52.694;13.294;2022-12-07T08:34:10;3.20;99.90
18577;DHT22;9418;52.694;13.294;2022-12-07T08:36:36;3.20;99.90
18577;DHT22;9418;52.694;13.294;2022-12-07T08:39:03;3.20;99.90
18577;DHT22;9418;52.694;13.294;2022-12-07T08:41:30;3.20;99.90
18577;DHT22;9418;52.694;13.294;2022-12-07T08:43:57;3.20;99.90
18577;DHT22;9418;52.694;13.294;2022-12-07T08:46:26;3.20;99.90
18577;DHT22;9418;52.694;13.294;2022-12-07T08:48:57;3.20;99.90
18577;DHT22;9418;52.694;13.294;2022-12-07T08:51:26;3.30;99.90
18577;DHT22;9418;52.694;13.294;2022-12-07T08:53:55;3.30;99.90
18577;DHT22;9418;52.694;13.294;2022-12-07T08:56:24;3.30;99.90
18577;DHT22;9418;52.694;13.294;2022-12-07T08:58:51;3.20;99.90
18577;DHT22;9418;52.694;13.294;2022-12-07T09:01:18;3.20;99.90
18577;DHT22;9418;52.694;13.294;2022-12-07T09:03:44;3.20;99.90
18577;DHT22;9418;52.694;13.294;2022-12-07T09:06:11;3.20;99.90
18577;DHT22;9418;52.694;13.294;2022-12-07T09:08:40;3.20;99.90
18577;DHT22;9418;52.694;13.294;2022-12-07T09:11:08;3.20;99.90
18577;DHT22;9418;52.694;13.294;2022-12-07T09:13:35;3.20;99.90
18577;DHT22;9418;52.694;13.294;2022-12-07T09:16:01;3.20;99.90
18577;DHT22;9418;52.694;13.294;2022-12-07T09:18:28;3.30;99.90
18577;DHT22;9418;52.694;13.294;2022-12-07T09:20:56;3.30;27.30
18577;DHT22;9418;52.694;13.294;2022-12-07T09:23:24;3.30;26.60
18577;DHT22;9418;52.694;13.294;2022-12-07T09:25:52;3.30;28.80
18577;DHT22;9418;52.694;13.294;2022-12-07T09:28:18;3.20;33.00
18577;DHT22;9418;52.694;13.294;2022-12-07T09:30:45;3.20;26.40
18577;DHT22;9418;52.694;13.294;2022-12-07T09:33:13;3.10;49.20
18577;DHT22;9418;52.694;13.294;2022-12-07T09:35:44;3.10;45.90
18577;DHT22;9418;52.694;13.294;2022-12-07T09:38:11;3.10;53.10
18577;DHT22;9418;52.694;13.294;2022-12-07T09:40:37;3.10;50.10
18577;DHT22;9418;52.694;13.294;2022-12-07T09:43:12;3.10;46.30
18577;DHT22;9418;52.694;13.294;2022-12-07T09:45:39;3.10;42.00
18577;DHT22;9418;52.694;13.294;2022-12-07T09:48:16;3.00;39.60
18577;DHT22;9418;52.694;13.294;2022-12-07T09:50:43;3.00;56.30
18577;DHT22;9418;52.694;13.294;2022-12-07T09:53:14;3.00;48.30
18577;DHT22;9418;52.694;13.294;2022-12-07T09:55:43;3.00;51.90
18577;DHT22;9418;52.694;13.294;2022-12-07T09:58:19;3.00;61.40
18577;DHT22;9418;52.694;13.294;2022-12-07T10:00:47;3.10;59.80
18577;DHT22;9418;52.694;13.294;2022-12-07T10:03:13;3.00;89.10
18577;DHT22;9418;52.694;13.294;2022-12-07T10:05:42;3.10;80.60
18577;DHT22;9418;52.694;13.294;2022-12-07T10:08:11;3.20;86.40
18577;DHT22;9418;52.694;13.294;2022-12-07T10:10:38;3.40;99.90
18577;DHT22;9418;52.694;13.294;2022-12-07T10:13:06;3.80;99.90
18577;DHT22;9418;52.694;13.294;2022-12-07T10:15:47;4.50;99.90
18577;DHT22;9418;52.694;13.294;2022-12-07T10:18:26;4.60;99.90
18577;DHT22;9418;52.694;13.294;2022-12-07T10:21:02;4.20;99.90
18577;DHT22;9418;52.694;13.294;2022-12-07T10:23:29;3.80;99.90
18577;DHT22;9418;52.694;13.294;2022-12-07T10:25:55;3.50;99.90
18577;DHT22;9418;52.694;13.294;2022-12-07T10:28:22;3.40;99.90
18577;DHT22;9418;52.694;13.294;2022-12-07T10:30:54;3.50;99.90
18577;DHT22;9418;52.694;13.294;2022-12-07T10:33:33;3.50;99.90
18577;DHT22;9418;52.694;13.294;2022-12-07T10:36:09;3.40;99.90
18577;DHT22;9418;52.694;13.294;2022-12-07T10:38:45;3.50;99.90
18577;DHT22;9418;52.694;13.294;2022-12-07T10:41:12;3.50;99.90
18577;DHT22;9418;52.694;13.294;2022-12-07T10:43:48;3.60;94.80
18577;DHT22;9418;52.694;13.294;2022-12-07T10:49:36;3.70;99.90
18577;DHT22;9418;52.694;13.294;2022-12-07T10:52:13;3.70;86.00
18577;DHT22;9418;52.694;13.294;2022-12-07T10:54:51;3.40;88.40
18577;DHT22;9418;52.694;13.294;2022-12-07T10:57:30;3.50;88.40
18577;DHT22;9418;52.694;13.294;2022-12-07T11:00:11;3.30;81.70
18577;DHT22;9418;52.694;13.294;2022-12-07T11:03:01;3.40;75.70
18577;DHT22;9418;52.694;13.294;2022-12-07T11:05:39;3.30;77.50
18577;DHT22;9418;52.694;13.294;2022-12-07T11:08:16;3.40;76.00
18577;DHT22;9418;52.694;13.294;2022-12-07T11:10:48;3.40;70.90
18577;DHT22;9418;52.694;13.294;2022-12-07T11:13:29;3.40;75.80
18577;DHT22;9418;52.694;13.294;2022-12-07T11:16:16;3.40;70.10
18577;DHT22;9418;52.694;13.294;2022-12-07T11:18:54;3.40;69.80
18577;DHT22;9418;52.694;13.294;2022-12-07T11:21:30;3.40;71.20
18577;DHT22;9418;52.694;13.294;2022-12-07T11:24:01;3.40;61.80
18577;DHT22;9418;52.694;13.294;2022-12-07T11:26:47;3.40;59.90
18577;DHT22;9418;52.694;13.294;2022-12-07T11:29:35;3.50;59.10
18577;DHT22;9418;52.694;13.294;2022-12-07T11:32:13;3.40;63.00
18577;DHT22;9418;52.694;13.294;2022-12-07T11:34:49;3.30;65.10
18577;DHT22;9418;52.694;13.294;2022-12-07T11:37:24;3.30;70.30
18577;DHT22;9418;52.694;13.294;2022-12-07T11:39:55;3.30;67.20
18577;DHT22;9418;52.694;13.294;2022-12-07T11:42:26;3.30;63.60
18577;DHT22;9418;52.694;13.294;2022-12-07T11:44:56;3.40;59.80
18577;DHT22;9418;52.694;13.294;2022-12-07T11:47:34;3.40;60.50
18577;DHT22;9418;52.694;13.294;2022-12-07T11:50:11;3.40;61.50
18577;DHT22;9418;52.694;13.294;2022-12-07T11:52:45;3.50;59.00
18577;DHT22;9418;52.694;13.294;2022-12-07T11:55:19;3.60;59.40
18577;DHT22;9418;52.694;13.294;2022-12-07T11:57:52;3.60;64.70
18577;DHT22;9418;52.694;13.294;2022-12-07T12:00:21;3.60;66.70
18577;DHT22;9418;52.694;13.294;2022-12-07T12:02:52;3.60;62.50
18577;DHT22;9418;52.694;13.294;2022-12-07T12:05:23;3.60;70.80
18577;DHT22;9418;52.694;13.294;2022-12-07T12:07:57;3.70;63.70
18577;DHT22;9418;52.694;13.294;2022-12-07T12:10:34;3.70;64.30
18577;DHT22;9418;52.694;13.294;2022-12-07T12:13:20;3.70;61.70
18577;DHT22;9418;52.694;13.294;2022-12-07T12:16:04;3.90;75.30
18577;DHT22;9418;52.694;13.294;2022-12-07T12:18:45;3.90;70.10
18577;DHT22;9418;52.694;13.294;2022-12-07T12:21:17;4.00;76.40
18577;DHT22;9418;52.694;13.294;2022-12-07T12:23:49;4.00;77.70
18577;DHT22;9418;52.694;13.294;2022-12-07T12:26:18;4.00;72.50
18577;DHT22;9418;52.694;13.294;2022-12-07T12:28:53;3.90;73.50
18577;DHT22;9418;52.694;13.294;2022-12-07T12:31:35;3.80;75.40
18577;DHT22;9418;52.694;13.294;2022-12-07T12:34:29;3.80;76.00
18577;DHT22;9418;52.694;13.294;2022-12-07T12:36:58;3.80;66.70
18577;DHT22;9418;52.694;13.294;2022-12-07T12:39:24;3.90;70.40
18577;DHT22;9418;52.694;13.294;2022-12-07T12:41:56;3.90;71.50
18577;DHT22;9418;52.694;13.294;2022-12-07T12:44:40;3.90;71.00
18577;DHT22;9418;52.694;13.294;2022-12-07T12:47:38;3.90;71.60
18577;DHT22;9418;52.694;13.294;2022-12-07T12:50:18;3.80;65.90
18577;DHT22;9418;52.694;13.294;2022-12-07T12:52:50;3.90;59.90
18577;DHT22;9418;52.694;13.294;2022-12-07T12:58:46;3.90;68.90
18577;DHT22;9418;52.694;13.294;2022-12-07T13:01:44;3.90;64.10
18577;DHT22;9418;52.694;13.294;2022-12-07T13:07:57;3.80;64.90
18577;DHT22;9418;52.694;13.294;2022-12-07T13:10:35;3.80;63.80
18577;DHT22;9418;52.694;13.294;2022-12-07T13:13:05;3.80;62.00
18577;DHT22;9418;52.694;13.294;2022-12-07T13:15:52;3.80;62.30
18577;DHT22;9418;52.694;13.294;2022-12-07T13:18:24;3.70;64.10
18577;DHT22;9418;52.694;13.294;2022-12-07T13:20:53;3.70;64.20
18577;DHT22;9418;52.694;13.294;2022-12-07T13:23:31;3.60;59.40
18577;DHT22;9418;52.694;13.294;2022-12-07T13:26:15;3.60;57.80
18577;DHT22;9418;52.694;13.294;2022-12-07T13:28:44;3.70;56.80
18577;DHT22;9418;52.694;13.294;2022-12-07T13:31:23;3.70;54.90
18577;DHT22;9418;52.694;13.294;2022-12-07T13:33:52;3.70;56.30
18577;DHT22;9418;52.694;13.294;2022-12-07T13:36:21;3.60;56.80
18577;DHT22;9418;52.694;13.294;2022-12-07T13:38:52;3.60;58.70
18577;DHT22;9418;52.694;13.294;2022-12-07T13:41:20;3.60;60.30
18577;DHT22;9418;52.694;13.294;2022-12-07T13:43:50;3.50;66.30
18577;DHT22;9418;52.694;13.294;2022-12-07T13:46:20;3.50;67.80
18577;DHT22;9418;52.694;13.294;2022-12-07T13:48:50;3.50;65.60
18577;DHT22;9418;52.694;13.294;2022-12-07T13:51:19;3.50;67.20
18577;DHT22;9418;52.694;13.294;2022-12-07T13:53:47;3.50;67.10
18577;DHT22;9418;52.694;13.294;2022-12-07T13:56:14;3.50;62.80
18577;DHT22;9418;52.694;13.294;2022-12-07T13:58:41;3.40;64.40
18577;DHT22;9418;52.694;13.294;2022-12-07T14:01:08;3.50;66.10
18577;DHT22;9418;52.694;13.294;2022-12-07T14:03:36;3.40;65.60
18577;DHT22;9418;52.694;13.294;2022-12-07T14:06:18;3.50;67.60
18577;DHT22;9418;52.694;13.294;2022-12-07T14:08:46;3.50;69.70
18577;DHT22;9418;52.694;13.294;2022-12-07T14:11:16;3.40;69.20
18577;DHT22;9418;52.694;13.294;2022-12-07T14:13:56;3.40;66.30
18577;DHT22;9418;52.694;13.294;2022-12-07T14:16:27;3.30;68.60
18577;DHT22;9418;52.694;13.294;2022-12-07T14:18:56;3.30;69.10
18577;DHT22;9418;52.694;13.294;2022-12-07T14:21:25;3.30;70.50
18577;DHT22;9418;52.694;13.294;2022-12-07T14:24:12;3.30;70.90
18577;DHT22;9418;52.694;13.294;2022-12-07T14:26:40;3.20;66.40
18577;DHT22;9418;52.694;13.294;2022-12-07T14:29:30;3.20;63.50
18577;DHT22;9418;52.694;13.294;2022-12-07T14:31:59;3.20;58.60
18577;DHT22;9418;52.694;13.294;2022-12-07T14:34:32;3.10;57.20
18577;DHT22;9418;52.694;13.294;2022-12-07T14:36:59;3.20;55.40
18577;DHT22;9418;52.694;13.294;2022-12-07T14:39:25;3.20;54.40
18577;DHT22;9418;52.694;13.294;2022-12-07T14:41:52;3.20;53.00
18577;DHT22;9418;52.694;13.294;2022-12-07T14:44:19;3.20;51.00
18577;DHT22;9418;52.694;13.294;2022-12-07T14:46:47;3.20;50.90
18577;DHT22;9418;52.694;13.294;2022-12-07T14:49:14;3.20;47.80
18577;DHT22;9418;52.694;13.294;2022-12-07T14:51:42;3.20;43.70
18577;DHT22;9418;52.694;13.294;2022-12-07T14:54:15;3.20;42.90
18577;DHT22;9418;52.694;13.294;2022-12-07T14:56:43;3.20;38.90
18577;DHT22;9418;52.694;13.294;2022-12-07T14:59:11;3.20;36.70
18577;DHT22;9418;52.694;13.294;2022-12-07T15:01:38;3.10;34.80
18577;DHT22;9418;52.694;13.294;2022-12-07T15:04:05;3.00;34.10
18577;DHT22;9418;52.694;13.294;2022-12-07T15:06:31;2.90;29.00
18577;DHT22;9418;52.694;13.294;2022-12-07T15:08:59;2.90;24.20
18577;DHT22;9418;52.694;13.294;2022-12-07T15:11:26;3.00;23.50
18577;DHT22;9418;52.694;13.294;2022-12-07T15:13:53;3.00;21.50
18577;DHT22;9418;52.694;13.294;2022-12-07T15:16:37;3.00;23.40
18577;DHT22;9418;52.694;13.294;2022-12-07T15:19:06;3.00;24.60
18577;DHT22;9418;52.694;13.294;2022-12-07T15:21:35;3.00;25.90
18577;DHT22;9418;52.694;13.294;2022-12-07T15:24:04;3.10;30.30
18577;DHT22;9418;52.694;13.294;2022-12-07T15:26:30;3.10;32.50
18577;DHT22;9418;52.694;13.294;2022-12-07T15:28:57;3.20;35.40
18577;DHT22;9418;52.694;13.294;2022-12-07T15:31:24;3.20;40.10
18577;DHT22;9418;52.694;13.294;2022-12-07T15:33:50;3.20;46.70
18577;DHT22;9418;52.694;13.294;2022-12-07T15:36:19;3.20;45.60
18577;DHT22;9418;52.694;13.294;2022-12-07T15:38:47;3.20;61.30
18577;DHT22;9418;52.694;13.294;2022-12-07T15:41:16;3.10;59.60
18577;DHT22;9418;52.694;13.294;2022-12-07T15:43:43;3.00;48.40
18577;DHT22;9418;52.694;13.294;2022-12-07T15:46:29;2.70;32.00
18577;DHT22;9418;52.694;13.294;2022-12-07T15:48:57;2.30;29.40
18577;DHT22;9418;52.694;13.294;2022-12-07T15:51:23;1.90;23.90
18577;DHT22;9418;52.694;13.294;2022-12-07T15:53:50;1.70;86.00
18577;DHT22;9418;52.694;13.294;2022-12-07T15:56:18;1.40;99.90
18577;DHT22;9418;52.694;13.294;2022-12-07T15:58:45;1.30;99.90
18577;DHT22;9418;52.694;13.294;2022-12-07T16:01:12;1.30;99.90
18577;DHT22;9418;52.694;13.294;2022-12-07T16:03:39;1.20;99.90
18577;DHT22;9418;52.694;13.294;2022-12-07T16:06:06;1.10;99.90
18577;DHT22;9418;52.694;13.294;2022-12-07T16:08:33;1.10;99.90
18577;DHT22;9418;52.694;13.294;2022-12-07T16:11:03;1.10;99.90
18577;DHT22;9418;52.694;13.294;2022-12-07T16:13:32;1.10;99.90
18577;DHT22;9418;52.694;13.294;2022-12-07T16:16:02;1.10;99.90
18577;DHT22;9418;52.694;13.294;2022-12-07T16:18:29;1.00;99.90
18577;DHT22;9418;52.694;13.294;2022-12-07T16:20:56;1.00;99.90
18577;DHT22;9418;52.694;13.294;2022-12-07T16:23:22;1.00;99.90
18577;DHT22;9418;52.694;13.294;2022-12-07T16:25:49;1.00;99.90
18577;DHT22;9418;52.694;13.294;2022-12-07T16:28:17;1.00;99.90
18577;DHT22;9418;52.694;13.294;2022-12-07T16:30:44;1.00;99.90
18577;DHT22;9418;52.694;13.294;2022-12-07T16:33:12;1.00;99.90